Auburn, Alabama
Current Conditions -  °F | °C
As of 7:15 AM on Wednesday 22 Oct 2014 (Local Time) from KAUO Reporting Station
Clear Clear  
Wind Chill: 44°   Ceiling: Unl
Heat Index: 48°   Visibility: 10mi
Dew Point: 37°   Wind: 10mph
Humidity: 66%   Direction: 20°NNE
Pressure: 30.13"   Gusts: NA
Location:  32.61°N, 85.48°W
Report Text: KAUO 221215Z AUTO 02009KT 10SM CLR 09/03 A3013 RMK AO1
Loading
Personal Weather Stations






























Interactive Weather Map New forecast layout! Learn more

10-Day Weather Forecast

Advertisements
Track Severe Weather on mobile